Archiv-/Tagesdaten

--Timestamp---	Temp	Chill	HIndex	Humid	Dewpt	 Wind 	HiWind	WindDir	Rain 	Barom	Solar	 ET  	 UV 
--------------	----	-----	------	-----	-----	------	------	-------	-----	-----	-----	-----	----
20100605 00:00	12.8	12.8	12.8	84	10.1	0	3	180	0.0	1020.3	0	0.025	0.0
20100605 00:05	12.7	12.7	12.7	85	10.3	0	2	180	0.0	1020.3	0	0.000	0.0
20100605 00:10	12.6	12.6	12.6	85	10.2	0	2	180	0.0	1020.4	0	0.000	0.0
20100605 00:15	12.5	12.5	12.5	85	10.0	0	0	-100000	0.0	1020.3	0	0.000	0.0
20100605 00:20	12.4	12.4	12.4	85	9.9	0	2	180	0.0	1020.3	0	0.000	0.0
20100605 00:25	12.3	12.3	12.3	86	10.1	0	5	180	0.0	1020.3	0	0.000	0.0
20100605 00:30	12.2	12.2	12.2	86	9.9	0	5	180	0.0	1020.4	0	0.000	0.0
20100605 00:35	12.2	12.2	12.2	86	9.9	2	5	180	0.0	1020.3	0	0.000	0.0
20100605 00:40	12.1	12.1	12.1	86	9.8	0	2	180	0.0	1020.3	0	0.000	0.0
20100605 00:45	12.0	12.0	12.0	86	9.7	0	3	180	0.0	1020.3	0	0.000	0.0
20100605 00:50	11.9	11.9	11.9	86	9.7	2	5	180	0.0	1020.3	0	0.000	0.0
20100605 00:55	11.9	11.9	11.9	87	9.8	3	6	180	0.0	1020.3	0	0.000	0.0
20100605 01:00	11.9	11.9	11.9	87	9.8	2	5	180	0.0	1020.4	0	0.000	0.0
20100605 01:05	11.8	11.8	11.8	87	9.7	2	5	180	0.0	1020.3	0	0.000	0.0
20100605 01:10	11.7	11.7	11.7	87	9.6	3	5	180	0.0	1020.2	0	0.000	0.0
20100605 01:15	11.7	11.7	11.7	87	9.6	2	5	180	0.0	1020.1	0	0.000	0.0
20100605 01:20	11.6	11.6	11.6	87	9.5	3	6	180	0.0	1020.1	0	0.000	0.0
20100605 01:25	11.4	11.4	11.4	87	9.4	2	5	180	0.0	1020.1	0	0.000	0.0
20100605 01:30	11.3	11.3	11.3	87	9.2	2	5	180	0.0	1020.1	0	0.000	0.0
20100605 01:35	11.3	11.3	11.3	88	9.4	2	6	180	0.0	1020.2	0	0.000	0.0
20100605 01:40	11.3	11.3	11.3	88	9.4	3	6	180	0.0	1020.2	0	0.000	0.0
20100605 01:45	11.2	11.2	11.2	88	9.3	0	5	180	0.0	1020.3	0	0.000	0.0
20100605 01:50	11.2	11.2	11.2	88	9.3	2	3	180	0.0	1020.3	0	0.000	0.0
20100605 01:55	11.1	11.1	11.1	88	9.2	2	6	180	0.0	1020.3	0	0.000	0.0
20100605 02:00	11.1	11.1	11.1	88	9.1	2	5	180	0.0	1020.2	0	0.000	0.0
20100605 02:05	11.0	11.0	11.0	88	9.1	0	5	180	0.0	1020.2	0	0.000	0.0
20100605 02:10	10.9	10.9	10.9	88	9.0	0	3	180	0.0	1020.2	0	0.000	0.0
20100605 02:15	10.8	10.8	10.8	88	8.9	0	2	180	0.0	1020.2	0	0.000	0.0
20100605 02:20	10.8	10.8	10.8	88	8.9	0	5	180	0.0	1020.1	0	0.000	0.0
20100605 02:25	10.8	10.8	10.8	88	8.9	2	8	180	0.0	1020.0	0	0.000	0.0
20100605 02:30	10.7	10.7	10.7	88	8.8	3	5	180	0.0	1020.0	0	0.000	0.0
20100605 02:35	10.7	10.7	10.7	88	8.8	3	6	180	0.0	1020.2	0	0.000	0.0
20100605 02:40	10.7	10.7	10.7	88	8.8	3	8	180	0.0	1020.1	0	0.000	0.0
20100605 02:45	10.7	10.7	10.7	88	8.8	2	5	180	0.0	1020.1	0	0.000	0.0
20100605 02:50	10.6	10.6	10.6	88	8.7	2	5	180	0.0	1020.1	0	0.000	0.0
20100605 02:55	10.6	10.6	10.6	88	8.7	0	2	180	0.0	1020.1	0	0.000	0.0
20100605 03:00	10.6	10.6	10.6	88	8.7	0	0	-100000	0.0	1020.1	0	0.000	0.0
20100605 03:05	10.4	10.4	10.4	88	8.5	0	0	-100000	0.0	1020.2	0	0.000	0.0
20100605 03:10	10.4	10.4	10.4	88	8.5	0	0	-100000	0.0	1020.1	0	0.000	0.0
20100605 03:15	10.3	10.3	10.3	89	8.6	0	0	-100000	0.0	1020.2	0	0.000	0.0
20100605 03:20	10.2	10.2	10.2	89	8.5	0	2	180	0.0	1020.3	0	0.000	0.0
20100605 03:25	10.2	10.2	10.2	89	8.4	0	3	180	0.0	1020.3	0	0.000	0.0
20100605 03:30	10.1	10.1	10.1	89	8.4	0	3	180	0.0	1020.3	0	0.000	0.0
20100605 03:35	10.0	10.0	10.0	89	8.3	0	3	180	0.0	1020.3	0	0.000	0.0
20100605 03:40	9.9	9.9	9.9	89	8.2	0	3	180	0.0	1020.4	0	0.000	0.0
20100605 03:45	9.8	9.8	9.8	89	8.1	0	0	-100000	0.0	1020.4	0	0.000	0.0
20100605 03:50	9.7	9.7	9.7	89	7.9	0	0	-100000	0.0	1020.4	0	0.000	0.0
20100605 03:55	9.6	9.6	9.6	89	7.8	0	0	-100000	0.0	1020.4	0	0.000	0.0
20100605 04:00	9.4	9.4	9.4	89	7.7	0	0	-100000	0.0	1020.4	0	0.000	0.0
20100605 04:05	9.3	9.3	9.3	90	7.7	0	0	-100000	0.0	1020.3	0	0.000	0.0
20100605 04:10	9.2	9.2	9.2	90	7.7	0	0	-100000	0.0	1020.2	0	0.000	0.0
20100605 04:15	9.2	9.2	9.2	90	7.7	0	0	-100000	0.0	1020.1	0	0.000	0.0
20100605 04:20	9.2	9.2	9.2	90	7.7	0	0	-100000	0.0	1020.1	0	0.000	0.0
20100605 04:25	9.2	9.2	9.2	90	7.6	0	0	-100000	0.0	1020.2	0	0.000	0.0
20100605 04:30	9.1	9.1	9.1	90	7.6	0	0	-100000	0.0	1020.3	0	0.000	0.0
20100605 04:35	9.1	9.1	9.1	90	7.5	0	0	-100000	0.0	1020.3	0	0.000	0.0
20100605 04:40	9.0	9.0	9.0	90	7.4	0	0	-100000	0.0	1020.3	0	0.000	0.0
20100605 04:45	8.9	8.9	8.9	91	7.6	0	0	-100000	0.0	1020.3	0	0.000	0.0
20100605 04:50	8.8	8.8	8.8	91	7.4	0	0	-100000	0.0	1020.4	0	0.000	0.0
20100605 04:55	8.8	8.8	8.8	91	7.4	0	0	-100000	0.0	1020.4	0	0.000	0.0
20100605 05:00	8.7	8.7	8.7	90	7.2	0	0	-100000	0.0	1020.4	0	0.000	0.0
20100605 05:05	8.7	8.7	8.7	91	7.3	0	0	-100000	0.0	1020.2	0	0.000	0.0
20100605 05:10	8.7	8.7	8.7	91	7.3	0	2	180	0.0	1020.1	0	0.000	0.0
20100605 05:15	8.7	8.7	8.7	91	7.3	0	3	180	0.0	1020.2	0	0.000	0.0
20100605 05:20	8.7	8.7	8.7	91	7.3	0	5	180	0.0	1020.2	2	0.000	0.0
20100605 05:25	8.7	8.7	8.7	91	7.3	0	5	180	0.0	1020.3	5	0.000	0.0
20100605 05:30	8.7	8.7	8.7	91	7.3	2	5	180	0.0	1020.1	7	0.000	0.0
20100605 05:35	8.7	8.7	8.7	91	7.3	0	3	180	0.0	1020.1	10	0.000	0.0
20100605 05:40	8.7	8.7	8.7	91	7.3	0	2	180	0.0	1020.2	12	0.000	0.0
20100605 05:45	8.8	8.8	8.8	92	7.5	0	0	-100000	0.0	1020.3	13	0.000	0.0
20100605 05:50	8.8	8.8	8.8	92	7.5	0	0	-100000	0.0	1020.3	16	0.000	0.0
20100605 05:55	8.8	8.8	8.8	92	7.5	0	0	-100000	0.0	1020.3	18	0.000	0.0
20100605 06:00	8.8	8.8	8.8	92	7.6	0	3	180	0.0	1020.2	19	0.000	0.0
20100605 06:05	8.9	8.9	8.9	92	7.7	0	2	180	0.0	1020.4	21	0.000	0.0
20100605 06:10	8.9	8.9	8.9	92	7.7	0	2	180	0.0	1020.4	23	0.000	0.0
20100605 06:15	9.1	9.1	9.1	92	7.8	0	2	180	0.0	1020.5	25	0.000	0.0
20100605 06:20	9.2	9.2	9.2	92	7.9	0	0	-100000	0.0	1020.4	26	0.000	0.0
20100605 06:25	9.2	9.2	9.2	92	8.0	2	5	180	0.0	1020.4	28	0.000	0.0
20100605 06:30	9.4	9.4	9.4	92	8.2	0	3	180	0.0	1020.4	30	0.000	0.0
20100605 06:35	9.6	9.6	9.6	92	8.3	3	6	180	0.0	1020.4	32	0.000	0.0
20100605 06:40	9.7	9.7	9.7	92	8.4	0	2	180	0.0	1020.4	36	0.000	0.0
20100605 06:45	9.8	9.8	9.8	92	8.6	0	2	180	0.0	1020.3	142	0.000	0.0
20100605 06:50	10.1	10.1	10.1	92	8.9	0	0	-100000	0.0	1020.4	172	0.000	0.0
20100605 06:55	10.4	10.4	10.4	92	9.1	0	2	180	0.0	1020.4	186	0.000	0.0
20100605 07:00	10.7	10.7	10.7	91	9.3	0	0	-100000	0.0	1020.3	202	0.025	0.0
20100605 07:05	11.1	11.1	11.1	91	9.7	0	0	-100000	0.0	1020.6	218	0.000	0.0
20100605 07:10	11.4	11.4	11.4	90	9.9	0	3	248	0.0	1020.4	232	0.000	0.3
20100605 07:15	11.8	11.8	11.8	89	10.1	0	2	248	0.0	1020.4	245	0.000	0.5
20100605 07:20	12.2	12.2	12.2	87	10.1	0	2	248	0.0	1020.4	258	0.000	0.6
20100605 07:25	12.5	12.5	12.5	87	10.4	0	0	-100000	0.0	1020.3	272	0.000	0.7
20100605 07:30	12.8	12.8	12.8	86	10.5	0	2	248	0.0	1020.2	286	0.000	0.7
20100605 07:35	13.4	13.4	13.4	84	10.7	0	0	-100000	0.0	1020.3	302	0.000	0.8
20100605 07:40	14.1	14.1	14.1	82	11.0	0	2	248	0.0	1020.1	314	0.000	0.9
20100605 07:45	14.5	14.5	14.5	80	11.1	0	2	248	0.0	1020.1	325	0.000	0.9
20100605 07:50	15.0	15.0	15.0	78	11.2	0	2	248	0.0	1020.0	337	0.000	1.0
20100605 07:55	15.2	15.2	15.2	77	11.2	0	3	248	0.0	1020.0	352	0.000	1.1
20100605 08:00	15.4	15.4	15.4	75	11.0	2	3	248	0.0	1020.0	367	0.152	1.2
20100605 08:05	15.3	15.3	15.3	75	10.9	3	5	248	0.0	1020.1	382	0.000	1.2
20100605 08:10	15.3	15.3	15.3	76	11.1	0	5	248	0.0	1020.2	394	0.000	1.3
20100605 08:15	15.6	15.6	15.6	77	11.5	0	2	248	0.0	1020.1	408	0.000	1.4
20100605 08:20	15.8	15.8	15.8	76	11.6	0	2	248	0.0	1020.2	421	0.000	1.5
20100605 08:25	16.2	16.2	16.2	76	12.0	0	2	225	0.0	1020.2	433	0.000	1.6
20100605 08:30	16.4	16.4	16.4	75	11.9	0	3	22	0.0	1020.1	449	0.000	1.7
20100605 08:35	16.6	16.6	16.6	75	12.1	0	5	22	0.0	1020.0	461	0.000	1.8
20100605 08:40	16.9	16.9	16.9	74	12.2	0	2	22	0.0	1020.0	475	0.000	1.9
20100605 08:45	17.2	17.2	17.2	74	12.5	0	2	22	0.0	1020.0	489	0.000	2.0
20100605 08:50	17.4	17.4	17.4	72	12.3	2	5	45	0.0	1019.9	502	0.000	2.1
20100605 08:55	17.4	17.4	17.4	71	12.1	3	6	90	0.0	1019.9	515	0.000	2.2
20100605 09:00	17.6	17.6	17.6	71	12.2	2	6	90	0.0	1019.9	528	0.254	2.3
20100605 09:05	17.7	17.7	17.7	72	12.6	3	8	90	0.0	1020.1	543	0.000	2.4
20100605 09:10	17.8	17.8	17.8	71	12.4	3	6	90	0.0	1020.0	557	0.000	2.6
20100605 09:15	17.9	17.9	17.9	72	12.8	5	8	90	0.0	1020.0	572	0.000	2.8
20100605 09:20	18.1	18.1	18.1	70	12.5	5	8	112	0.0	1019.9	585	0.000	2.9
20100605 09:25	18.2	18.2	18.2	68	12.2	5	11	135	0.0	1019.8	596	0.000	3.0
20100605 09:30	18.5	18.5	18.5	70	12.9	2	6	135	0.0	1019.9	608	0.000	3.1
20100605 09:35	18.9	18.9	18.9	67	12.6	3	10	135	0.0	1019.8	623	0.000	3.3
20100605 09:40	19.1	19.1	19.1	66	12.6	5	10	135	0.0	1019.7	636	0.000	3.5
20100605 09:45	19.1	19.1	19.1	66	12.6	3	6	90	0.0	1019.7	647	0.000	3.6
20100605 09:50	19.2	19.2	19.2	65	12.4	5	13	135	0.0	1019.6	660	0.000	3.7
20100605 09:55	19.3	19.3	19.3	66	12.8	6	14	112	0.0	1019.7	670	0.000	3.9
20100605 10:00	19.4	19.4	19.4	66	12.9	3	10	112	0.0	1019.6	680	0.356	4.0
20100605 10:05	19.7	19.7	19.7	64	12.7	5	10	112	0.0	1019.7	687	0.000	4.1
20100605 10:10	19.8	19.8	19.8	64	12.8	6	16	135	0.0	1019.7	702	0.000	4.3
20100605 10:15	20.1	20.1	20.1	63	12.8	6	16	135	0.0	1019.6	714	0.000	4.5
20100605 10:20	20.2	20.2	20.2	61	12.4	8	14	112	0.0	1019.7	722	0.000	4.6
20100605 10:25	20.2	20.2	20.2	59	11.9	6	16	135	0.0	1019.6	735	0.000	4.8
20100605 10:30	20.4	20.4	20.4	60	12.4	5	14	135	0.0	1019.4	748	0.000	4.9
20100605 10:35	20.4	20.4	20.4	60	12.4	6	14	135	0.0	1019.4	756	0.000	5.1
20100605 10:40	20.4	20.4	20.4	59	12.1	10	16	112	0.0	1019.4	764	0.000	5.2
20100605 10:45	20.5	20.5	20.5	61	12.7	5	11	112	0.0	1019.4	772	0.000	5.4
20100605 10:50	20.4	20.4	20.4	59	12.2	8	18	90	0.0	1019.4	784	0.000	5.5
20100605 10:55	20.5	20.5	20.5	59	12.2	10	18	68	0.0	1019.4	793	0.000	5.7
20100605 11:00	20.5	20.5	20.5	58	11.9	8	14	68	0.0	1019.4	803	0.483	5.8
20100605 11:05	20.4	20.4	20.4	57	11.6	6	14	45	0.0	1019.5	810	0.000	5.9
20100605 11:10	20.5	20.5	20.5	56	11.4	6	11	45	0.0	1019.5	820	0.000	6.1
20100605 11:15	20.6	20.6	20.6	57	11.7	6	11	68	0.0	1019.5	829	0.000	6.3
20100605 11:20	20.6	20.6	20.6	57	11.7	8	16	68	0.0	1019.6	833	0.000	6.4
20100605 11:25	20.6	20.6	20.6	57	11.8	8	14	45	0.0	1019.5	839	0.000	6.5
20100605 11:30	20.7	20.7	20.7	57	11.9	6	11	45	0.0	1019.5	850	0.000	6.7
20100605 11:35	20.9	20.9	20.9	56	11.8	6	11	135	0.0	1019.5	856	0.000	6.7
20100605 11:40	21.1	21.1	21.1	55	11.7	6	13	90	0.0	1019.4	861	0.000	6.8
20100605 11:45	21.2	21.2	21.2	54	11.5	6	10	90	0.0	1019.4	867	0.000	7.0
20100605 11:50	21.3	21.3	21.3	55	11.9	6	16	112	0.0	1019.4	874	0.000	7.1
20100605 11:55	21.5	21.5	21.5	53	11.5	6	10	112	0.0	1019.2	882	0.000	7.3
20100605 12:00	21.6	21.6	21.6	54	11.8	3	8	90	0.0	1019.1	884	0.533	7.3
20100605 12:05	21.6	21.6	21.6	56	12.4	6	10	112	0.0	1019.3	888	0.000	7.4
20100605 12:10	21.7	21.7	21.7	61	13.9	8	16	68	0.0	1019.2	892	0.000	7.5
20100605 12:15	21.6	21.6	21.6	63	14.3	6	14	68	0.0	1019.2	896	0.000	7.5
20100605 12:20	21.7	21.7	21.7	59	13.4	6	14	68	0.0	1019.2	901	0.000	7.7
20100605 12:25	21.4	21.4	21.4	60	13.3	10	18	45	0.0	1019.1	900	0.000	7.6
20100605 12:30	21.3	21.3	21.3	62	13.7	10	18	22	0.0	1019.2	902	0.000	7.7
20100605 12:35	21.3	21.3	21.3	62	13.7	13	23	22	0.0	1019.1	901	0.000	7.7
20100605 12:40	21.3	21.3	21.3	62	13.7	10	18	45	0.0	1019.2	901	0.000	7.7
20100605 12:45	21.4	21.4	21.4	61	13.5	11	19	45	0.0	1019.1	908	0.000	7.9
20100605 12:50	21.7	21.7	21.7	60	13.6	6	13	68	0.0	1019.1	911	0.000	7.9
20100605 12:55	21.6	21.6	21.6	59	13.2	10	19	68	0.0	1019.0	911	0.000	7.9
20100605 13:00	21.8	21.8	21.8	61	13.9	8	16	45	0.0	1018.9	907	0.584	7.9
20100605 13:05	21.8	21.8	21.8	59	13.5	11	19	68	0.0	1019.0	909	0.000	7.9
20100605 13:10	21.7	21.7	21.7	60	13.6	13	23	68	0.0	1018.9	917	0.000	8.0
20100605 13:15	21.7	21.7	21.7	60	13.6	10	21	68	0.0	1018.9	914	0.000	8.0
20100605 13:20	21.7	21.7	21.7	59	13.4	10	18	45	0.0	1018.9	912	0.000	7.9
20100605 13:25	21.9	21.9	21.9	61	14.1	8	23	68	0.0	1018.8	914	0.000	8.0
20100605 13:30	22.1	22.1	22.1	58	13.4	11	23	45	0.0	1018.7	917	0.000	8.0
20100605 13:35	22.1	22.1	22.1	57	13.1	10	19	68	0.0	1018.7	915	0.000	8.0
20100605 13:40	22.1	22.1	22.1	58	13.5	8	18	68	0.0	1018.7	913	0.000	8.0
20100605 13:45	22.2	22.2	22.2	56	13.0	8	19	90	0.0	1018.7	910	0.000	7.9
20100605 13:50	22.3	22.3	22.3	57	13.3	8	18	68	0.0	1018.7	911	0.000	7.9
20100605 13:55	22.3	22.3	22.3	55	12.8	11	19	68	0.0	1018.6	910	0.000	7.9
20100605 14:00	22.4	22.4	22.4	55	12.9	10	16	68	0.0	1018.6	908	0.610	7.8
20100605 14:05	22.4	22.4	22.4	54	12.6	11	19	45	0.0	1018.6	904	0.000	7.7
20100605 14:10	22.4	22.4	22.4	52	12.1	10	16	45	0.0	1018.6	902	0.000	7.7
20100605 14:15	22.6	22.6	22.6	52	12.2	10	18	68	0.0	1018.5	897	0.000	7.6
20100605 14:20	22.7	22.7	22.7	50	11.7	8	16	68	0.0	1018.5	893	0.000	7.5
20100605 14:25	22.6	22.6	22.6	52	12.2	10	18	68	0.0	1018.3	890	0.000	7.5
20100605 14:30	22.7	22.7	22.7	52	12.3	8	21	68	0.0	1018.3	884	0.000	7.4
20100605 14:35	22.9	22.9	22.9	51	12.3	8	14	45	0.0	1018.2	882	0.000	7.3
20100605 14:40	23.1	23.1	23.1	50	12.1	10	19	45	0.0	1018.1	876	0.000	7.2
20100605 14:45	23.1	23.1	23.1	51	12.4	8	11	68	0.0	1018.1	871	0.000	7.1
20100605 14:50	23.3	23.3	23.3	46	11.0	10	16	68	0.0	1018.2	864	0.000	6.9
20100605 14:55	23.2	23.2	23.2	48	11.6	5	11	68	0.0	1018.2	859	0.000	6.8
20100605 15:00	23.3	23.3	23.3	49	12.0	6	16	68	0.0	1018.2	848	0.584	6.7
20100605 15:05	23.4	23.4	23.4	51	12.7	8	16	45	0.0	1018.3	842	0.000	6.6
20100605 15:10	23.4	23.4	23.4	47	11.4	8	16	68	0.0	1018.3	833	0.000	6.4
20100605 15:15	23.4	23.4	23.4	48	11.7	8	13	45	0.0	1018.2	832	0.000	6.3
20100605 15:20	23.4	23.4	23.4	48	11.8	6	14	90	0.0	1018.2	823	0.000	6.2
20100605 15:25	23.6	23.6	23.6	47	11.6	6	11	68	0.0	1018.2	814	0.000	6.0
20100605 15:30	23.7	23.7	23.7	44	10.7	8	14	68	0.0	1018.1	809	0.000	5.9
20100605 15:35	23.7	23.7	23.7	44	10.7	8	16	68	0.0	1018.0	800	0.000	5.8
20100605 15:40	23.8	23.8	23.8	41	9.8	8	14	45	0.0	1017.9	793	0.000	5.7
20100605 15:45	24.0	24.0	25.4	43	10.6	6	16	68	0.0	1017.9	786	0.000	5.5
20100605 15:50	24.0	24.0	25.3	42	10.3	8	11	45	0.0	1017.8	778	0.000	5.4
20100605 15:55	23.9	23.9	25.3	42	10.2	8	19	45	0.0	1017.8	765	0.000	5.2
20100605 16:00	23.9	23.9	25.3	43	10.6	8	16	90	0.0	1017.8	757	0.559	5.0
20100605 16:05	24.1	24.1	25.3	41	10.0	8	16	68	0.0	1017.9	748	0.000	4.9
20100605 16:10	24.2	24.2	25.4	41	10.1	3	10	90	0.0	1017.8	736	0.000	4.8
20100605 16:15	24.3	24.3	25.5	44	11.2	5	11	90	0.0	1017.7	723	0.000	4.6
20100605 16:20	24.3	24.3	25.5	46	12.0	8	14	68	0.0	1017.6	709	0.000	4.4
20100605 16:25	24.2	24.2	25.4	43	10.8	10	19	45	0.0	1017.6	702	0.000	4.3
20100605 16:30	24.2	24.2	25.4	41	10.1	6	11	90	0.0	1017.7	690	0.000	4.1
20100605 16:35	24.2	24.2	25.4	44	11.2	8	14	68	0.0	1017.6	678	0.000	4.0
20100605 16:40	24.3	24.3	25.5	43	10.9	8	14	22	0.0	1017.5	661	0.000	3.8
20100605 16:45	24.4	24.4	25.5	44	11.4	6	13	68	0.0	1017.5	652	0.000	3.7
20100605 16:50	24.4	24.4	25.5	45	11.7	8	14	68	0.0	1017.5	641	0.000	3.5
20100605 16:55	24.3	24.3	25.5	44	11.3	8	16	45	0.0	1017.5	629	0.000	3.4
20100605 17:00	24.2	24.2	25.5	45	11.5	5	8	68	0.0	1017.4	616	0.483	3.2
20100605 17:05	24.2	24.2	25.5	46	11.9	10	16	45	0.0	1017.4	599	0.000	3.1
20100605 17:10	24.2	24.2	25.5	46	11.9	8	16	68	0.0	1017.4	587	0.000	2.9
20100605 17:15	24.2	24.2	25.4	46	11.8	10	18	68	0.0	1017.4	575	0.000	2.8
20100605 17:20	24.2	24.2	25.4	46	11.8	8	14	45	0.0	1017.4	562	0.000	2.7
20100605 17:25	24.2	24.2	25.4	46	11.8	8	14	68	0.0	1017.3	551	0.000	2.6
20100605 17:30	24.2	24.2	25.5	46	11.9	8	14	68	0.0	1017.4	536	0.000	2.4
20100605 17:35	24.3	24.3	25.5	44	11.2	6	10	68	0.0	1017.3	521	0.000	2.3
20100605 17:40	24.3	24.3	25.5	46	11.9	6	11	45	0.0	1017.3	507	0.000	2.2
20100605 17:45	24.2	24.2	25.5	47	12.1	6	14	68	0.0	1017.3	494	0.000	2.1
20100605 17:50	24.2	24.2	25.5	48	12.5	8	14	68	0.0	1017.2	481	0.000	1.9
20100605 17:55	24.2	24.2	25.5	47	12.2	6	14	68	0.0	1017.2	467	0.000	1.8
20100605 18:00	24.2	24.2	25.5	50	13.1	8	11	68	0.0	1017.1	454	0.406	1.7
20100605 18:05	24.2	24.2	25.5	47	12.1	8	14	68	0.0	1016.9	440	0.000	1.6
20100605 18:10	24.2	24.2	25.5	48	12.5	6	10	68	0.0	1016.8	428	0.000	1.5
20100605 18:15	24.1	24.1	25.4	48	12.4	6	11	68	0.0	1016.8	415	0.000	1.4
20100605 18:20	24.0	24.0	25.4	50	12.9	5	10	68	0.0	1016.8	401	0.000	1.3
20100605 18:25	24.0	24.0	25.4	50	12.9	6	14	45	0.0	1016.8	386	0.000	1.2
20100605 18:30	24.0	24.0	25.4	49	12.6	8	14	68	0.0	1016.8	373	0.000	1.2
20100605 18:35	23.9	23.9	25.4	48	12.2	6	11	68	0.0	1016.7	360	0.000	1.1
20100605 18:40	23.9	23.9	25.3	51	13.1	6	11	68	0.0	1016.7	348	0.000	1.0
20100605 18:45	23.9	23.9	25.3	51	13.1	5	11	112	0.0	1016.7	334	0.000	0.9
20100605 18:50	23.9	23.9	25.3	51	13.1	6	11	68	0.0	1016.6	320	0.000	0.9
20100605 18:55	23.8	23.8	23.8	51	13.1	5	8	68	0.0	1016.6	306	0.000	0.8
20100605 19:00	23.7	23.7	23.7	51	13.0	6	13	68	0.0	1016.6	292	0.279	0.7
20100605 19:05	23.6	23.6	23.6	53	13.5	6	10	68	0.0	1016.2	278	0.000	0.7
20100605 19:10	23.4	23.4	23.4	52	13.0	6	10	68	0.0	1016.2	264	0.000	0.6
20100605 19:15	23.3	23.3	23.3	54	13.4	5	8	45	0.0	1016.1	247	0.000	0.6
20100605 19:20	23.1	23.1	23.1	55	13.6	6	10	68	0.0	1016.1	109	0.000	0.3
20100605 19:25	22.9	22.9	22.9	55	13.4	5	8	45	0.0	1016.2	44	0.000	0.0
20100605 19:30	22.8	-100000.0	22.8	56	13.5	-100000	0	-100000	0.0	1016.2	-100000	0.000	0.0
20100605 19:35	22.6	22.6	22.6	56	13.3	5	8	68	0.0	1016.2	42	0.000	0.0
20100605 19:40	22.3	22.3	22.3	58	13.7	5	10	68	0.0	1016.1	42	0.000	0.0
20100605 19:45	22.2	22.2	22.2	58	13.6	5	8	68	0.0	1016.1	40	0.000	0.0
20100605 19:50	22.1	22.1	22.1	58	13.5	5	8	68	0.0	1016.2	40	0.000	0.0
20100605 19:55	22.0	22.0	22.0	59	13.6	3	6	68	0.0	1016.2	39	0.000	0.0
20100605 20:00	21.8	21.8	21.8	59	13.5	5	8	68	0.0	1016.3	37	0.102	0.0
20100605 20:05	21.8	21.8	21.8	60	13.7	5	8	68	0.0	1016.1	34	0.000	0.0
20100605 20:10	21.7	21.7	21.7	60	13.6	2	6	68	0.0	1016.0	32	0.000	0.0
20100605 20:15	21.5	21.5	21.5	60	13.4	2	5	68	0.0	1015.9	30	0.000	0.0
20100605 20:20	21.3	21.3	21.3	61	13.5	2	5	68	0.0	1015.9	27	0.000	0.0
20100605 20:25	21.1	21.1	21.1	61	13.3	0	3	68	0.0	1015.9	24	0.000	0.0
20100605 20:30	20.9	20.9	20.9	62	13.4	0	5	68	0.0	1015.9	23	0.000	0.0
20100605 20:35	20.8	20.8	20.8	62	13.2	2	5	68	0.0	1016.0	20	0.000	0.0
20100605 20:40	20.6	20.6	20.6	63	13.3	2	5	68	0.0	1016.0	16	0.000	0.0
20100605 20:45	20.3	20.3	20.3	63	13.1	2	5	68	0.0	1016.1	12	0.000	0.0
20100605 20:50	20.2	20.2	20.2	63	12.9	2	5	68	0.0	1016.0	11	0.000	0.0
20100605 20:55	20.0	20.0	20.0	64	13.0	2	5	68	0.0	1016.1	7	0.000	0.0
20100605 21:00	19.8	19.8	19.8	65	13.1	2	3	68	0.0	1016.1	5	0.025	0.0
20100605 21:05	19.6	19.6	19.6	65	12.8	2	3	68	0.0	1015.9	0	0.000	0.0
20100605 21:10	19.4	19.4	19.4	66	12.9	0	3	68	0.0	1016.0	0	0.000	0.0
20100605 21:15	19.2	19.2	19.2	67	12.9	0	2	68	0.0	1016.0	0	0.000	0.0
20100605 21:20	19.0	19.0	19.0	68	13.0	0	2	68	0.0	1016.1	0	0.000	0.0
20100605 21:25	18.8	18.8	18.8	68	12.7	0	2	68	0.0	1016.1	0	0.000	0.0
20100605 21:30	18.6	18.6	18.6	69	12.8	0	2	68	0.0	1016.1	0	0.000	0.0
20100605 21:35	18.3	18.3	18.3	69	12.5	0	2	68	0.0	1016.1	0	0.000	0.0
20100605 21:40	18.1	18.1	18.1	70	12.5	0	2	68	0.0	1016.2	0	0.000	0.0
20100605 21:45	17.9	17.9	17.9	70	12.4	0	2	68	0.0	1016.3	0	0.000	0.0
20100605 21:50	17.7	17.7	17.7	72	12.6	0	2	68	0.0	1016.3	0	0.000	0.0
20100605 21:55	17.5	17.5	17.5	72	12.4	0	0	-100000	0.0	1016.3	0	0.000	0.0
20100605 22:00	17.3	17.3	17.3	72	12.2	0	2	68	0.0	1016.3	0	0.000	0.0
20100605 22:05	17.1	17.1	17.1	73	12.2	0	0	-100000	0.0	1016.2	0	0.000	0.0
20100605 22:10	16.8	16.8	16.8	74	12.2	0	2	68	0.0	1016.3	0	0.000	0.0
20100605 22:15	16.7	16.7	16.7	74	12.0	0	2	68	0.0	1016.4	0	0.000	0.0
20100605 22:20	16.4	16.4	16.4	75	12.0	0	0	-100000	0.0	1016.3	0	0.000	0.0
20100605 22:25	16.3	16.3	16.3	76	12.0	0	0	-100000	0.0	1016.3	0	0.000	0.0
20100605 22:30	16.1	16.1	16.1	76	11.9	0	0	-100000	0.0	1016.4	0	0.000	0.0
20100605 22:35	15.9	15.9	15.9	77	11.9	0	0	-100000	0.0	1016.3	0	0.000	0.0
20100605 22:40	15.7	15.7	15.7	77	11.6	0	0	-100000	0.0	1016.4	0	0.000	0.0
20100605 22:45	15.6	15.6	15.6	78	11.7	0	2	68	0.0	1016.4	0	0.000	0.0
20100605 22:50	15.4	15.4	15.4	78	11.6	0	0	-100000	0.0	1016.4	0	0.000	0.0
20100605 22:55	15.4	15.4	15.4	78	11.6	0	0	-100000	0.0	1016.4	0	0.000	0.0
20100605 23:00	15.3	15.3	15.3	79	11.7	0	0	-100000	0.0	1016.4	0	0.025	0.0
20100605 23:05	15.2	15.2	15.2	79	11.6	0	0	-100000	0.0	1016.3	0	0.000	0.0
20100605 23:10	15.1	15.1	15.1	79	11.4	0	2	68	0.0	1016.3	0	0.000	0.0
20100605 23:15	15.0	15.0	15.0	78	11.2	0	2	68	0.0	1016.3	0	0.000	0.0
20100605 23:20	15.0	15.0	15.0	79	11.4	0	0	-100000	0.0	1016.2	0	0.000	0.0
20100605 23:25	15.0	15.0	15.0	80	11.6	0	0	-100000	0.0	1016.2	0	0.000	0.0
20100605 23:30	14.9	14.9	14.9	80	11.5	0	0	-100000	0.0	1016.2	0	0.000	0.0
20100605 23:35	14.8	14.8	14.8	80	11.4	0	0	-100000	0.0	1016.3	0	0.000	0.0
20100605 23:40	14.7	14.7	14.7	81	11.4	0	0	-100000	0.0	1016.5	0	0.000	0.0
20100605 23:45	14.5	14.5	14.5	81	11.3	0	0	-100000	0.0	1016.5	0	0.000	0.0
20100605 23:50	14.4	14.4	14.4	82	11.4	0	0	-100000	0.0	1016.4	0	0.000	0.0
20100605 23:55	14.3	14.3	14.3	82	11.2	0	0	-100000	0.0	1016.4	0	0.000	0.0



Please note the license to use and transfer of this data:
http://creativecommons.org/licenses/by-nc-sa/3.0/deed.en

Bitte beachten sie die Lizenz zur Verwertung und Weitergabe der Daten:
http://creativecommons.org/licenses/by-nc-sa/3.0/deed.de

zurück zur Übersicht der Archivdaten (Monats und Tagesdaten)

Cookies helfen bei der Bereitstellung von Inhalten. Durch die Nutzung dieser Seiten erklärst du dich damit einverstanden, dass Cookies auf deinem Rechner gespeichert werden. Weitere Information